Water Valley, Texas
Current Conditions -  °F | °C
As of 5:51 AM on Thursday 29 Jan 2015 (Local Time) from KSJT Reporting Station
Broken Clouds Broken Clouds  
Wind Chill: 52°   Ceiling: 10000
Heat Index: 52°   Visibility: 10mi
Dew Point: 41°   Wind: 8mph
Humidity: 66%   Direction: 40°NE
Pressure: 30.16"   Gusts: NA
Location:  31.67°N, 100.72°W
Report Text: KSJT 291151Z AUTO 04007KT 10SM BKN100 11/05 A3016 RMK AO2 SLP203 T01110050 10133 20083 53018
Loading
Personal Weather Stations






























Interactive Weather Map New forecast layout! Learn more

10-Day Weather Forecast

Advertisements
Track Severe Weather on mobile